Terminal Aerodrome Forecast
Issued by NWS

Home | Current Version | Previous Version | Text Only | Print | Product List | Glossary On
Versions: 1 2 3 4 5 6 7 8 9 10 11 12 13 14 15 16 17 18 19
061
FTUS41 KBTV 290742 AAA
TAFRUT
TAF AMD
KRUT 290742Z 2908/3006 15009KT P6SM BKN025 BKN200
      TEMPO 2908/2912 SCT025 BKN200
     FM291200 13009KT P6SM SCT025 BKN200
     FM291400 12009G18KT P6SM BKN150 BKN200
     FM300000 13007KT P6SM BKN150 BKN200
      AMD LTD TO CLD VIS AND WIND=

USA.gov is the U.S. government's official web portal to all federal, state and local government web resources and services.